createdAt,value
2022-10-04T04:02:45.956Z,6.40
2022-10-04T04:07:11.312Z,5.03
2022-10-04T04:11:27.445Z,4.50
2022-10-04T04:15:43.364Z,4.07
2022-10-04T04:20:02.267Z,4.07
2022-10-04T04:24:29.213Z,4.95
2022-10-04T04:28:49.012Z,4.32
2022-10-04T04:33:10.409Z,4.22
2022-10-04T04:37:21.950Z,4.15
2022-10-04T04:41:36.844Z,4.18
2022-10-04T04:46:08.546Z,4.07
2022-10-04T04:50:30.318Z,4.50
2022-10-04T04:54:41.832Z,4.20
2022-10-04T04:58:56.973Z,4.20
2022-10-04T05:03:18.469Z,4.22
2022-10-04T05:07:30.439Z,5.15
2022-10-04T05:11:42.183Z,5.85
2022-10-04T05:15:55.251Z,7.15
2022-10-04T05:20:07.276Z,5.50
2022-10-04T05:24:21.362Z,5.25
2022-10-04T05:28:33.198Z,5.07
2022-10-04T05:33:10.704Z,5.10
2022-10-04T05:37:25.283Z,5.00
2022-10-04T05:42:19.697Z,4.75
2022-10-04T05:46:35.633Z,5.93
2022-10-04T05:50:48.655Z,5.90
2022-10-04T05:55:12.194Z,7.22
2022-10-04T05:59:31.942Z,7.68
2022-10-04T06:03:52.509Z,6.13
2022-10-04T06:08:23.926Z,4.78
2022-10-04T06:12:44.440Z,5.10
2022-10-04T06:17:11.309Z,5.07
2022-10-04T06:21:28.458Z,5.32
2022-10-04T06:25:52.965Z,5.93
2022-10-04T06:30:16.564Z,6.53
2022-10-04T06:34:40.323Z,10.30
2022-10-04T06:39:09.417Z,4.78
2022-10-04T06:43:36.142Z,4.40
2022-10-04T06:48:21.874Z,5.03
2022-10-04T06:53:01.613Z,4.10
2022-10-04T06:57:35.570Z,4.50
2022-10-04T07:01:51.456Z,4.75
2022-10-04T07:06:05.354Z,4.70
2022-10-04T07:10:32.903Z,5.43
2022-10-04T07:14:53.039Z,4.88
2022-10-04T07:19:11.004Z,5.65
2022-10-04T07:23:32.221Z,5.22
2022-10-04T07:28:21.544Z,5.22
2022-10-04T07:32:38.740Z,5.50
2022-10-04T07:36:55.066Z,6.25
2022-10-04T07:41:20.849Z,6.40
2022-10-04T07:45:35.316Z,6.85
2022-10-04T07:49:50.861Z,7.35
2022-10-04T07:54:30.246Z,6.80
2022-10-04T07:59:08.630Z,7.05
2022-10-04T08:03:49.381Z,7.55
2022-10-04T08:08:19.673Z,8.65
2022-10-04T08:12:52.027Z,7.50
2022-10-04T08:17:30.570Z,7.50
2022-10-04T08:22:05.496Z,6.97
2022-10-04T08:26:59.297Z,7.25
2022-10-04T08:31:26.178Z,7.90
2022-10-04T08:35:56.214Z,7.95
2022-10-04T08:40:12.871Z,7.22
2022-10-04T08:44:34.224Z,8.13
2022-10-04T08:49:28.762Z,8.20
2022-10-04T08:53:49.173Z,7.80
2022-10-04T08:58:12.858Z,7.28
2022-10-04T09:02:58.388Z,7.85
2022-10-04T09:07:39.289Z,7.15
2022-10-04T09:12:32.535Z,7.10
2022-10-04T09:16:53.030Z,6.82
2022-10-04T09:21:14.339Z,7.82
2022-10-04T09:25:31.820Z,7.05
2022-10-04T09:29:55.527Z,7.13
2022-10-04T09:34:25.662Z,6.90
2022-10-04T09:39:28.294Z,6.97
2022-10-04T09:44:01.103Z,6.63
2022-10-04T09:48:25.335Z,6.78
2022-10-04T09:52:53.077Z,6.97
2022-10-04T09:57:39.281Z,7.55
2022-10-04T10:02:09.996Z,7.63
2022-10-04T10:06:46.584Z,5.82
2022-10-04T10:11:37.843Z,6.55
2022-10-04T10:16:04.684Z,6.25
2022-10-04T10:20:58.455Z,5.85
2022-10-04T10:25:34.367Z,4.95
2022-10-04T10:30:03.215Z,4.68
2022-10-04T10:34:36.049Z,4.70
2022-10-04T10:38:55.005Z,3.90
2022-10-04T10:43:37.818Z,4.07
2022-10-04T10:48:00.573Z,4.20
2022-10-04T10:52:18.181Z,3.53
2022-10-04T10:56:57.687Z,4.05
2022-10-04T11:01:28.065Z,3.55
2022-10-04T11:06:03.497Z,3.95
2022-10-04T11:10:36.545Z,3.85
2022-10-04T11:15:29.454Z,3.90
2022-10-04T11:19:40.943Z,3.85
2022-10-04T11:24:29.930Z,3.47
2022-10-04T11:28:50.599Z,4.13
2022-10-04T11:33:39.539Z,3.90
2022-10-04T11:38:16.077Z,3.22
2022-10-04T11:42:39.696Z,3.78
2022-10-04T11:47:04.501Z,3.55
2022-10-04T11:51:38.547Z,3.45
2022-10-04T11:56:19.462Z,3.47
2022-10-04T12:00:45.266Z,3.83
2022-10-04T12:05:33.027Z,3.60
2022-10-04T12:10:00.945Z,3.40
2022-10-04T12:14:29.318Z,3.60
2022-10-04T12:19:15.394Z,3.20
2022-10-04T12:23:33.063Z,3.38
2022-10-04T12:28:14.344Z,2.97
2022-10-04T12:32:34.298Z,3.40
2022-10-04T12:37:13.795Z,3.55
2022-10-04T12:41:48.882Z,3.33
2022-10-04T12:46:00.408Z,2.90
2022-10-04T12:50:39.415Z,3.17
2022-10-04T12:54:59.400Z,2.70
2022-10-04T12:59:39.891Z,2.85
2022-10-04T13:03:54.982Z,3.00
2022-10-04T13:08:30.643Z,2.90
2022-10-04T13:13:05.211Z,3.00
2022-10-04T13:17:50.000Z,2.90
2022-10-04T13:22:44.363Z,3.03
2022-10-04T13:27:16.067Z,8.48
2022-10-04T13:31:40.628Z,3.47
2022-10-04T13:36:05.348Z,2.90
2022-10-04T13:40:21.355Z,2.85
2022-10-04T13:44:43.970Z,3.13
2022-10-04T13:49:41.032Z,3.42
2022-10-04T13:54:37.064Z,3.60
2022-10-04T13:58:59.530Z,3.38
2022-10-04T14:03:48.207Z,3.30
2022-10-04T14:08:26.447Z,3.00
2022-10-04T14:13:24.370Z,3.28
2022-10-04T14:18:13.429Z,3.05
2022-10-04T14:23:07.313Z,3.08
2022-10-04T14:27:43.382Z,3.22
2022-10-04T14:32:32.335Z,3.60
2022-10-04T14:37:37.746Z,3.17
2022-10-04T14:42:01.268Z,3.40
2022-10-04T14:46:34.169Z,3.40
2022-10-04T14:51:16.762Z,4.00
2022-10-04T14:55:48.861Z,3.35
2022-10-04T15:00:18.839Z,3.42
2022-10-04T15:04:56.664Z,3.13
2022-10-04T15:09:26.420Z,3.53
2022-10-04T15:14:03.021Z,3.80
2022-10-04T15:18:28.112Z,3.30
2022-10-04T15:23:01.413Z,3.20
2022-10-04T15:27:31.465Z,3.25
2022-10-04T15:31:45.971Z,3.40
2022-10-04T15:35:57.544Z,3.10
2022-10-04T15:40:51.700Z,3.35
2022-10-04T15:45:18.355Z,3.58
2022-10-04T15:49:32.875Z,4.18
2022-10-04T15:53:47.166Z,3.40
2022-10-04T15:58:40.669Z,3.80
2022-10-04T16:03:17.725Z,3.80
2022-10-04T16:08:02.326Z,3.70
2022-10-04T16:12:22.944Z,3.75
2022-10-04T16:16:46.159Z,3.78
2022-10-04T16:21:25.727Z,3.78
2022-10-04T16:25:39.064Z,4.03
2022-10-04T16:30:26.554Z,4.25
2022-10-04T16:34:41.692Z,4.82
2022-10-04T16:39:15.354Z,5.60
2022-10-04T16:43:30.006Z,6.13
2022-10-04T16:47:47.505Z,4.63
2022-10-04T16:52:05.033Z,4.63
2022-10-04T16:56:23.425Z,4.97
2022-10-04T17:00:37.829Z,5.50
2022-10-04T17:05:14.190Z,12.10
2022-10-04T17:09:29.826Z,12.45
2022-10-04T17:13:50.848Z,10.35
2022-10-04T17:18:08.544Z,22.35
2022-10-04T17:22:48.077Z,40.28
2022-10-04T17:27:26.192Z,37.65
2022-10-04T17:31:51.917Z,30.33
2022-10-04T17:36:15.805Z,12.88
2022-10-04T17:40:41.321Z,6.45
2022-10-04T17:45:17.615Z,7.15
2022-10-04T17:50:12.931Z,10.00
2022-10-04T17:54:55.312Z,15.25
2022-10-04T17:59:31.104Z,19.10
2022-10-04T18:03:52.444Z,15.27
2022-10-04T18:08:15.187Z,11.00
2022-10-04T18:12:29.794Z,8.05
2022-10-04T18:16:56.484Z,8.20
2022-10-04T18:21:27.840Z,8.88
2022-10-04T18:25:41.369Z,8.02
2022-10-04T18:30:11.167Z,7.13
2022-10-04T18:34:31.135Z,14.55
2022-10-04T18:38:45.164Z,14.10
2022-10-04T18:43:00.208Z,12.80
2022-10-04T18:47:21.109Z,9.75
2022-10-04T18:51:53.843Z,8.43
2022-10-04T18:56:08.569Z,8.27
2022-10-04T19:00:38.731Z,7.68
2022-10-04T19:04:57.971Z,9.57
2022-10-04T19:09:48.186Z,8.15
2022-10-04T19:14:16.548Z,7.95
2022-10-04T19:18:30.925Z,6.63
2022-10-04T19:23:08.710Z,6.13
2022-10-04T19:27:27.062Z,6.72
2022-10-04T19:31:58.531Z,6.30
2022-10-04T19:36:23.041Z,7.00
2022-10-04T19:40:48.052Z,6.65
2022-10-04T19:45:12.068Z,7.15
2022-10-04T19:49:48.009Z,8.20
2022-10-04T19:54:29.310Z,8.57
2022-10-04T19:58:41.832Z,8.40
2022-10-04T20:02:53.492Z,9.25
2022-10-04T20:07:20.459Z,11.00
2022-10-04T20:11:38.664Z,10.52
2022-10-04T20:15:59.676Z,9.10
2022-10-04T20:20:39.506Z,9.90
2022-10-04T20:24:51.097Z,8.85
2022-10-04T20:29:03.035Z,8.63
2022-10-04T20:33:34.421Z,8.48
2022-10-04T20:38:13.897Z,8.65
2022-10-04T20:42:38.865Z,8.30
2022-10-04T20:46:50.921Z,8.45
2022-10-04T20:51:10.660Z,7.43
2022-10-04T20:55:29.574Z,6.75
2022-10-04T20:59:42.854Z,6.18
2022-10-04T21:04:11.457Z,6.03
2022-10-04T21:08:24.726Z,6.63
2022-10-04T21:12:36.153Z,6.65
2022-10-04T21:16:51.104Z,6.28
2022-10-04T21:21:03.033Z,6.60
2022-10-04T21:25:32.049Z,6.68
